PH-0006 weather

Rancudo Airfield
Palawan Province, Philippines

Public forecast

Using degrees Celsius for public forecast. Weather courtesy of forecast.io.

Closest aviation weather report (METAR) to Rancudo Airfield

Report is more than 2 hours old.

Closest report is Puerto Princesa Airport, 275.7 nm (510.6 km) ESE. Retrieved 2020/07/05 12:00 UTC (2 hours ago):

RPVP 051200Z 18004KT 9999 FEW019 BKN080 28/24 Q1008 RMK A2977 RERASH

Closest aviation forecast (TAF) to Rancudo Airfield

Closest forecast is Puerto Princesa Airport, 275.7 nm (510.6 km) ESE. Retrieved 2020/07/05 12:02 UTC (2 hours ago):

TAF RPVP 051100Z 0512/0612 18006KT 9999 FEW019 BKN080 TEMPO 0512/0518 21006KT -SHRA FEW017CB SCT019 OVC080 TEMPO 0518/0524 -SHRA SCT019 BKN080